Terminal Aerodrome Forecast
Issued by NWS

Home | Current Version | Previous Version | Text Only | Print | Product List | Glossary On
Versions: 1 2 3 4 5 6 7 8 9 10 11 12 13 14 15 16
000
FTPA31 PHFO 110540
TAFHMK
TAF
PHMK 110540Z 1106/1206 13005KT P6SM VCSH SCT020 BKN035 BKN100
      TEMPO 1106/1110 -RA SCT008=

USA.gov is the U.S. government's official web portal to all federal, state and local government web resources and services.